createdAt,value
2023-04-30T00:00:38.271Z,11.30
2023-04-30T00:03:06.682Z,11.30
2023-04-30T00:05:35.117Z,11.20
2023-04-30T00:08:04.163Z,11.20
2023-04-30T00:10:33.830Z,11.20
2023-04-30T00:13:02.115Z,11.30
2023-04-30T00:15:31.135Z,11.10
2023-04-30T00:17:59.361Z,11.10
2023-04-30T00:20:27.616Z,11.10
2023-04-30T00:22:55.894Z,11.00
2023-04-30T00:25:24.579Z,11.00
2023-04-30T00:27:55.542Z,10.90
2023-04-30T00:30:23.808Z,11.00
2023-04-30T00:32:52.232Z,10.90
2023-04-30T00:35:20.757Z,10.80
2023-04-30T00:37:48.977Z,10.90
2023-04-30T00:40:17.683Z,10.80
2023-04-30T00:42:46.414Z,10.80
2023-04-30T00:45:18.199Z,10.70
2023-04-30T00:47:46.649Z,10.70
2023-04-30T00:50:16.222Z,10.50
2023-04-30T00:52:45.052Z,10.60
2023-04-30T00:55:15.150Z,10.50
2023-04-30T00:57:43.391Z,10.50
2023-04-30T01:00:13.940Z,10.50
2023-04-30T01:02:43.738Z,10.50
2023-04-30T01:05:12.009Z,10.40
2023-04-30T01:07:44.884Z,10.40
2023-04-30T01:10:15.414Z,10.40
2023-04-30T01:12:51.285Z,10.50
2023-04-30T01:15:26.108Z,10.40
2023-04-30T01:18:00.399Z,10.30
2023-04-30T01:20:30.961Z,10.30
2023-04-30T01:23:10.390Z,10.40
2023-04-30T01:26:08.416Z,10.30
2023-04-30T01:28:39.568Z,10.30
2023-04-30T01:31:14.046Z,10.30
2023-04-30T01:33:42.270Z,10.30
2023-04-30T01:36:36.855Z,10.30
2023-04-30T01:39:16.711Z,10.30
2023-04-30T01:41:54.762Z,10.30
2023-04-30T01:44:47.007Z,10.30
2023-04-30T01:47:26.500Z,10.30
2023-04-30T01:50:07.932Z,10.30
2023-04-30T01:52:41.418Z,10.30
2023-04-30T01:55:14.036Z,10.20
2023-04-30T01:57:45.773Z,10.20
2023-04-30T02:00:17.858Z,10.20
2023-04-30T02:02:46.262Z,10.20
2023-04-30T02:05:14.528Z,10.20
2023-04-30T02:07:44.199Z,10.10
2023-04-30T02:10:12.992Z,10.10
2023-04-30T02:12:41.871Z,10.10
2023-04-30T02:15:11.275Z,10.00
2023-04-30T02:17:41.048Z,10.00
2023-04-30T02:20:10.235Z,10.00
2023-04-30T02:22:38.637Z,10.00
2023-04-30T02:25:07.480Z,9.90
2023-04-30T02:27:36.077Z,9.90
2023-04-30T02:30:04.791Z,9.90
2023-04-30T02:32:33.210Z,9.80
2023-04-30T02:35:03.064Z,9.80
2023-04-30T02:37:31.300Z,9.80
2023-04-30T02:39:59.721Z,9.80
2023-04-30T02:42:27.995Z,9.80
2023-04-30T02:44:56.166Z,9.80
2023-04-30T02:47:24.506Z,9.70
2023-04-30T02:49:53.185Z,9.70
2023-04-30T02:52:23.135Z,9.70
2023-04-30T02:54:51.324Z,9.70
2023-04-30T02:57:19.569Z,9.70
2023-04-30T02:59:47.832Z,9.60
2023-04-30T03:02:16.698Z,9.60
2023-04-30T03:04:44.992Z,9.60
2023-04-30T03:07:13.221Z,9.50
2023-04-30T03:09:43.174Z,9.50
2023-04-30T03:12:11.465Z,9.40
2023-04-30T03:14:39.851Z,9.40
2023-04-30T03:17:08.222Z,9.40
2023-04-30T03:19:36.995Z,9.40
2023-04-30T03:22:05.217Z,9.40
2023-04-30T03:24:33.493Z,9.30
2023-04-30T03:27:03.396Z,9.40
2023-04-30T03:29:31.587Z,9.30
2023-04-30T03:31:59.889Z,9.30
2023-04-30T03:34:28.273Z,9.30
2023-04-30T03:36:56.528Z,9.30
2023-04-30T03:39:24.789Z,9.30
2023-04-30T03:41:53.007Z,9.30
2023-04-30T03:44:23.297Z,9.30
2023-04-30T03:46:51.516Z,9.30
2023-04-30T03:49:19.736Z,9.10
2023-04-30T03:51:48.023Z,9.20
2023-04-30T03:54:16.344Z,9.20
2023-04-30T03:56:44.795Z,9.10
2023-04-30T03:59:13.197Z,9.10
2023-04-30T04:01:43.284Z,9.10
2023-04-30T04:04:11.938Z,9.00
2023-04-30T04:06:40.411Z,8.90
2023-04-30T04:09:08.821Z,9.00
2023-04-30T04:11:37.038Z,9.00
2023-04-30T04:14:05.307Z,9.00
2023-04-30T04:16:33.636Z,9.00
2023-04-30T04:19:04.514Z,9.00
2023-04-30T04:21:33.404Z,8.90
2023-04-30T04:24:08.172Z,8.90
2023-04-30T04:26:37.224Z,8.90
2023-04-30T04:29:05.608Z,8.90
2023-04-30T04:31:33.849Z,8.90
2023-04-30T04:34:05.860Z,8.90
2023-04-30T04:36:34.442Z,8.90
2023-04-30T04:39:03.826Z,8.80
2023-04-30T04:41:33.241Z,8.80
2023-04-30T04:44:01.744Z,8.80
2023-04-30T04:46:31.968Z,8.80
2023-04-30T04:49:00.439Z,8.90
2023-04-30T04:51:30.120Z,8.80
2023-04-30T04:53:58.326Z,8.80
2023-04-30T04:56:26.681Z,8.90
2023-04-30T04:58:54.905Z,8.90
2023-04-30T05:01:23.153Z,9.00
2023-04-30T05:03:53.573Z,8.90
2023-04-30T05:06:22.209Z,9.00
2023-04-30T05:08:51.941Z,9.00
2023-04-30T05:11:21.843Z,9.10
2023-04-30T05:13:50.046Z,9.10
2023-04-30T05:16:18.353Z,9.10
2023-04-30T05:18:46.559Z,9.10
2023-04-30T05:21:15.397Z,9.10
2023-04-30T05:23:43.641Z,9.20
2023-04-30T05:26:13.216Z,9.20
2023-04-30T05:28:41.953Z,9.30
2023-04-30T05:31:10.477Z,9.30
2023-04-30T05:33:40.310Z,9.30
2023-04-30T05:36:08.741Z,9.40
2023-04-30T05:38:37.290Z,9.40
2023-04-30T05:41:06.058Z,9.50
2023-04-30T05:43:35.756Z,9.60
2023-04-30T05:46:04.237Z,9.70
2023-04-30T05:48:32.915Z,9.80
2023-04-30T05:51:02.030Z,9.80
2023-04-30T05:53:30.703Z,9.90
2023-04-30T05:55:59.080Z,9.90
2023-04-30T05:58:27.440Z,10.00
2023-04-30T06:00:57.105Z,10.00
2023-04-30T06:03:25.465Z,10.10
2023-04-30T06:05:53.714Z,10.10
2023-04-30T06:08:22.043Z,10.20
2023-04-30T06:10:51.649Z,10.30
2023-04-30T06:13:19.970Z,10.40
2023-04-30T06:15:48.255Z,10.50
2023-04-30T06:18:17.782Z,10.60
2023-04-30T06:20:46.092Z,10.70
2023-04-30T06:23:14.412Z,10.80
2023-04-30T06:25:42.849Z,10.90
2023-04-30T06:28:11.090Z,11.00
2023-04-30T06:30:39.675Z,11.10
2023-04-30T06:33:08.035Z,11.20
2023-04-30T06:35:37.808Z,11.40
2023-04-30T06:38:06.172Z,11.50
2023-04-30T06:40:34.788Z,11.60
2023-04-30T06:43:03.180Z,11.60
2023-04-30T06:45:31.432Z,11.70
2023-04-30T06:47:59.710Z,11.70
2023-04-30T06:50:28.087Z,11.90
2023-04-30T06:52:58.191Z,12.00
2023-04-30T06:55:27.994Z,12.10
2023-04-30T06:57:57.747Z,12.20
2023-04-30T07:00:26.414Z,12.30
2023-04-30T07:02:54.638Z,12.30
2023-04-30T07:05:23.034Z,12.40
2023-04-30T07:07:51.258Z,12.50
2023-04-30T07:10:21.005Z,12.50
2023-04-30T07:12:49.265Z,12.60
2023-04-30T07:15:17.593Z,12.60
2023-04-30T07:17:45.902Z,12.70
2023-04-30T07:20:15.497Z,12.70
2023-04-30T07:22:44.567Z,12.80
2023-04-30T07:25:12.978Z,12.90
2023-04-30T07:27:42.688Z,13.00
2023-04-30T07:30:11.385Z,13.00
2023-04-30T07:32:41.144Z,13.10
2023-04-30T07:35:10.541Z,13.10
2023-04-30T07:37:40.977Z,13.20
2023-04-30T07:40:15.320Z,13.20
2023-04-30T07:42:59.541Z,13.30
2023-04-30T07:45:31.733Z,13.30
2023-04-30T07:48:00.249Z,13.40
2023-04-30T07:50:33.621Z,13.50
2023-04-30T07:53:03.512Z,13.50
2023-04-30T07:55:32.310Z,13.60
2023-04-30T07:58:03.872Z,13.70
2023-04-30T08:00:32.288Z,13.80
2023-04-30T08:03:01.518Z,13.80
2023-04-30T08:05:29.997Z,13.90
2023-04-30T08:07:58.549Z,14.10
2023-04-30T08:10:27.384Z,14.10
2023-04-30T08:12:56.549Z,14.10
2023-04-30T08:15:28.211Z,14.20
2023-04-30T08:17:57.244Z,14.20
2023-04-30T08:20:26.216Z,14.20
2023-04-30T08:22:54.482Z,14.40
2023-04-30T08:25:22.869Z,14.50
2023-04-30T08:27:52.267Z,14.50
2023-04-30T08:30:21.256Z,14.60
2023-04-30T08:32:52.240Z,14.60
2023-04-30T08:35:21.089Z,14.70
2023-04-30T08:37:49.533Z,14.80
2023-04-30T08:40:17.880Z,14.80
2023-04-30T08:42:51.920Z,14.90
2023-04-30T08:45:20.666Z,15.00
2023-04-30T08:47:51.685Z,15.00
2023-04-30T08:50:20.452Z,15.10
2023-04-30T08:52:48.956Z,15.10
2023-04-30T08:55:17.211Z,15.10
2023-04-30T08:57:45.525Z,15.20
2023-04-30T09:00:14.976Z,15.30
2023-04-30T09:02:45.138Z,15.40
2023-04-30T09:05:16.774Z,15.40
2023-04-30T09:10:19.908Z,15.50
2023-04-30T09:13:00.535Z,15.60
2023-04-30T09:15:29.438Z,15.60
2023-04-30T09:18:08.955Z,15.70
2023-04-30T09:20:39.109Z,15.80
2023-04-30T09:23:08.822Z,15.90
2023-04-30T09:25:41.112Z,15.90
2023-04-30T09:28:13.772Z,16.00
2023-04-30T09:30:42.711Z,16.10
2023-04-30T09:33:12.196Z,16.10
2023-04-30T09:35:42.619Z,16.20
2023-04-30T09:38:27.513Z,16.30
2023-04-30T09:40:55.952Z,16.30
2023-04-30T09:43:24.229Z,16.40
2023-04-30T09:45:53.748Z,16.40
2023-04-30T09:48:23.703Z,16.40
2023-04-30T09:50:55.234Z,16.40
2023-04-30T09:53:24.204Z,16.50
2023-04-30T09:55:54.238Z,16.50
2023-04-30T09:58:26.977Z,16.50
2023-04-30T10:00:58.465Z,16.60
2023-04-30T10:03:26.795Z,16.70
2023-04-30T10:05:56.939Z,16.70
2023-04-30T10:08:28.911Z,16.80
2023-04-30T10:11:03.673Z,16.80
2023-04-30T10:13:34.499Z,16.90
2023-04-30T10:16:08.943Z,16.90
2023-04-30T10:18:41.110Z,17.00
2023-04-30T10:21:16.062Z,17.00
2023-04-30T10:23:45.255Z,17.10
2023-04-30T10:26:14.112Z,17.20
2023-04-30T10:28:43.321Z,17.30
2023-04-30T10:31:13.167Z,17.40
2023-04-30T10:33:49.856Z,17.50
2023-04-30T10:36:32.272Z,17.60
2023-04-30T10:39:02.164Z,17.80
2023-04-30T10:41:32.085Z,17.80
2023-04-30T10:44:05.261Z,18.00
2023-04-30T10:46:36.920Z,17.90
2023-04-30T10:49:05.656Z,18.00
2023-04-30T10:51:49.456Z,18.10
2023-04-30T10:54:28.139Z,18.20
2023-04-30T10:57:11.605Z,18.30
2023-04-30T10:59:43.558Z,18.40
2023-04-30T11:02:12.827Z,18.40
2023-04-30T11:05:12.786Z,18.50
2023-04-30T11:07:50.353Z,18.50
2023-04-30T11:10:22.821Z,18.50
2023-04-30T11:12:52.669Z,18.50
2023-04-30T11:15:22.914Z,18.60
2023-04-30T11:17:51.965Z,18.60
2023-04-30T11:20:23.915Z,18.80
2023-04-30T11:23:12.353Z,18.80
2023-04-30T11:25:42.338Z,18.90
2023-04-30T11:28:16.391Z,18.90
2023-04-30T11:30:52.857Z,19.00
2023-04-30T11:33:21.852Z,19.00
2023-04-30T11:35:52.743Z,19.10
2023-04-30T11:38:23.851Z,19.30
2023-04-30T11:40:54.166Z,19.40
2023-04-30T11:43:23.749Z,19.50
2023-04-30T11:46:03.096Z,19.70
2023-04-30T11:48:35.453Z,19.80
2023-04-30T11:51:15.363Z,19.80
2023-04-30T11:53:48.614Z,19.90
2023-04-30T11:56:21.496Z,20.00
2023-04-30T11:58:50.921Z,20.00
2023-04-30T12:01:20.993Z,20.10
2023-04-30T12:03:53.239Z,20.10
2023-04-30T12:06:27.742Z,20.20
2023-04-30T12:08:58.898Z,20.20
2023-04-30T12:11:28.349Z,20.30
2023-04-30T12:13:58.818Z,20.20
2023-04-30T12:16:29.646Z,20.10
2023-04-30T12:18:58.069Z,20.10
2023-04-30T12:21:26.550Z,20.00
2023-04-30T12:23:54.877Z,20.00
2023-04-30T12:26:24.679Z,20.00
2023-04-30T12:28:53.630Z,20.10
2023-04-30T12:31:22.249Z,20.10
2023-04-30T12:33:57.834Z,20.20
2023-04-30T12:36:33.776Z,20.00
2023-04-30T12:39:09.459Z,20.20
2023-04-30T12:41:43.101Z,20.30
2023-04-30T12:44:22.578Z,20.40
2023-04-30T12:46:53.418Z,20.50
2023-04-30T12:49:25.985Z,20.60
2023-04-30T12:52:00.156Z,20.60
2023-04-30T12:54:29.837Z,20.70
2023-04-30T12:57:01.892Z,20.80
2023-04-30T12:59:31.155Z,20.90
2023-04-30T13:02:08.056Z,21.00
2023-04-30T13:04:37.035Z,21.30
2023-04-30T13:07:05.657Z,21.50
2023-04-30T13:09:34.318Z,21.80
2023-04-30T13:12:04.550Z,22.00
2023-04-30T13:14:33.755Z,22.10
2023-04-30T13:17:04.877Z,22.10
2023-04-30T13:19:33.306Z,22.10
2023-04-30T13:22:02.184Z,22.00
2023-04-30T13:24:31.124Z,21.90
2023-04-30T13:26:59.850Z,21.90
2023-04-30T13:29:29.538Z,21.90
2023-04-30T13:31:58.267Z,22.00
2023-04-30T13:34:26.691Z,22.10
2023-04-30T13:36:55.074Z,22.10
2023-04-30T13:39:23.414Z,22.30
2023-04-30T13:41:51.826Z,22.30
2023-04-30T13:44:20.102Z,22.30
2023-04-30T13:46:49.991Z,22.20
2023-04-30T13:49:18.216Z,22.40
2023-04-30T13:51:46.455Z,22.50
2023-04-30T13:54:14.742Z,22.40
2023-04-30T13:56:43.096Z,22.50
2023-04-30T13:59:12.267Z,22.50
2023-04-30T14:01:40.693Z,22.30
2023-04-30T14:04:10.300Z,22.30
2023-04-30T14:06:39.714Z,22.20
2023-04-30T14:09:07.947Z,22.40
2023-04-30T14:11:36.292Z,22.70
2023-04-30T14:14:04.482Z,23.00
2023-04-30T14:16:33.741Z,23.10
2023-04-30T14:19:02.204Z,23.20
2023-04-30T14:21:33.149Z,23.10
2023-04-30T14:24:01.365Z,23.10
2023-04-30T14:26:29.706Z,22.90
2023-04-30T14:28:58.689Z,22.90
2023-04-30T14:31:27.079Z,22.80
2023-04-30T14:33:55.305Z,22.50
2023-04-30T14:36:23.547Z,22.40
2023-04-30T14:38:53.079Z,22.30
2023-04-30T14:41:21.261Z,22.10
2023-04-30T14:43:49.616Z,22.00
2023-04-30T14:46:18.013Z,21.90
2023-04-30T14:48:46.630Z,22.20
2023-04-30T14:51:14.949Z,22.50
2023-04-30T14:53:43.187Z,22.90
2023-04-30T14:56:12.825Z,23.00
2023-04-30T14:58:41.100Z,23.10
2023-04-30T15:01:09.743Z,23.00
2023-04-30T15:03:38.201Z,22.90
2023-04-30T15:06:06.912Z,23.10
2023-04-30T15:08:35.231Z,23.30
2023-04-30T15:11:04.970Z,23.40
2023-04-30T15:13:34.520Z,23.40
2023-04-30T15:16:02.725Z,23.60
2023-04-30T15:18:30.956Z,23.90
2023-04-30T15:20:59.364Z,24.20
2023-04-30T15:23:27.543Z,24.60
2023-04-30T15:25:56.434Z,24.80
2023-04-30T15:28:24.811Z,24.90
2023-04-30T15:30:54.569Z,24.80
2023-04-30T15:33:24.565Z,24.60
2023-04-30T15:35:54.440Z,24.40
2023-04-30T15:38:23.025Z,24.20
2023-04-30T15:40:51.683Z,23.90
2023-04-30T15:43:22.393Z,23.80
2023-04-30T15:45:53.211Z,23.60
2023-04-30T15:48:23.008Z,23.40
2023-04-30T15:50:51.255Z,23.20
2023-04-30T15:53:19.543Z,23.00
2023-04-30T15:55:49.819Z,22.80
2023-04-30T15:58:20.609Z,22.70
2023-04-30T16:00:49.284Z,22.50
2023-04-30T16:03:17.695Z,22.40
2023-04-30T16:05:47.523Z,22.20
2023-04-30T16:08:16.519Z,22.10
2023-04-30T16:10:44.779Z,22.00
2023-04-30T16:13:13.532Z,21.90
2023-04-30T16:15:41.833Z,22.00
2023-04-30T16:18:10.036Z,21.90
2023-04-30T16:20:38.662Z,22.00
2023-04-30T16:23:11.741Z,22.30
2023-04-30T16:25:39.970Z,22.50
2023-04-30T16:28:08.336Z,22.70
2023-04-30T16:30:36.843Z,22.80
2023-04-30T16:33:05.856Z,23.10
2023-04-30T16:35:34.173Z,23.50
2023-04-30T16:38:02.816Z,23.50
2023-04-30T16:40:32.457Z,23.60
2023-04-30T16:43:00.833Z,23.30
2023-04-30T16:45:30.284Z,23.30
2023-04-30T16:47:58.679Z,23.20
2023-04-30T16:50:27.481Z,23.10
2023-04-30T16:52:55.794Z,22.90
2023-04-30T16:55:25.011Z,22.80
2023-04-30T16:57:54.805Z,22.60
2023-04-30T17:00:23.172Z,22.40
2023-04-30T17:02:53.079Z,22.20
2023-04-30T17:05:21.810Z,22.10
2023-04-30T17:07:50.283Z,21.90
2023-04-30T17:10:21.227Z,21.80
2023-04-30T17:12:49.511Z,21.70
2023-04-30T17:15:20.205Z,21.60
2023-04-30T17:17:48.501Z,21.50
2023-04-30T17:20:16.823Z,21.40
2023-04-30T17:22:45.115Z,21.30
2023-04-30T17:25:13.426Z,21.20
2023-04-30T17:27:42.112Z,21.20
2023-04-30T17:30:10.728Z,21.10
2023-04-30T17:32:40.936Z,21.00
2023-04-30T17:35:09.252Z,20.90
2023-04-30T17:37:37.424Z,20.90
2023-04-30T17:40:06.528Z,20.80
2023-04-30T17:42:35.123Z,20.70
2023-04-30T17:45:03.451Z,20.70
2023-04-30T17:47:31.815Z,20.60
2023-04-30T17:50:04.537Z,20.60
2023-04-30T17:52:35.496Z,20.40
2023-04-30T17:55:03.819Z,20.40
2023-04-30T17:57:32.176Z,20.40
2023-04-30T18:00:00.555Z,20.30
2023-04-30T18:02:28.884Z,20.20
2023-04-30T18:04:57.146Z,20.20
2023-04-30T18:07:26.831Z,20.10
2023-04-30T18:09:55.597Z,20.10
2023-04-30T18:12:24.052Z,20.00
2023-04-30T18:14:52.525Z,19.90
2023-04-30T18:17:20.886Z,19.90
2023-04-30T18:19:49.804Z,19.90
2023-04-30T18:22:18.950Z,19.80
2023-04-30T18:24:48.717Z,19.70
2023-04-30T18:27:16.990Z,19.70
2023-04-30T18:29:45.363Z,19.60
2023-04-30T18:32:13.814Z,19.60
2023-04-30T18:34:42.387Z,19.50
2023-04-30T18:37:10.997Z,19.40
2023-04-30T18:39:39.223Z,19.30
2023-04-30T18:42:09.375Z,19.30
2023-04-30T18:44:38.846Z,19.20
2023-04-30T18:47:07.122Z,19.10
2023-04-30T18:49:35.356Z,19.00
2023-04-30T18:52:03.816Z,19.00
2023-04-30T18:54:32.193Z,18.90
2023-04-30T18:57:00.772Z,18.80
2023-04-30T18:59:30.454Z,18.70
2023-04-30T19:01:59.149Z,18.70
2023-04-30T19:04:27.538Z,18.60
2023-04-30T19:06:56.000Z,18.50
2023-04-30T19:09:24.393Z,18.40
2023-04-30T19:11:53.372Z,18.30
2023-04-30T19:14:21.673Z,18.20
2023-04-30T19:16:51.308Z,18.20
2023-04-30T19:19:19.615Z,18.10
2023-04-30T19:21:47.851Z,18.10
2023-04-30T19:24:16.031Z,18.00
2023-04-30T19:26:44.614Z,17.90
2023-04-30T19:29:12.846Z,17.90
2023-04-30T19:31:41.198Z,17.90
2023-04-30T19:34:10.916Z,17.80
2023-04-30T19:36:39.124Z,17.80
2023-04-30T19:39:10.155Z,17.70
2023-04-30T19:41:38.498Z,17.70
2023-04-30T19:44:12.500Z,17.70
2023-04-30T19:46:42.251Z,17.70
2023-04-30T19:49:11.944Z,17.60
2023-04-30T19:51:40.175Z,17.60
2023-04-30T19:54:13.828Z,17.50
2023-04-30T19:56:42.517Z,17.50
2023-04-30T19:59:13.929Z,17.50
2023-04-30T20:01:42.645Z,17.50
2023-04-30T20:04:12.229Z,17.40
2023-04-30T20:06:40.569Z,17.40
2023-04-30T20:09:09.053Z,17.40
2023-04-30T20:11:37.648Z,17.30
2023-04-30T20:14:06.284Z,17.30
2023-04-30T20:16:34.968Z,17.20
2023-04-30T20:19:04.182Z,17.20
2023-04-30T20:21:34.507Z,17.20
2023-04-30T20:24:04.141Z,17.10
2023-04-30T20:26:32.575Z,17.10
2023-04-30T20:29:01.035Z,17.10
2023-04-30T20:31:31.268Z,17.00
2023-04-30T20:33:59.588Z,17.00
2023-04-30T20:36:30.569Z,17.00
2023-04-30T20:39:00.431Z,17.00
2023-04-30T20:41:30.338Z,16.90
2023-04-30T20:43:59.899Z,16.90
2023-04-30T20:46:28.888Z,16.90
2023-04-30T20:49:03.681Z,16.90
2023-04-30T20:51:32.031Z,16.80
2023-04-30T20:54:01.578Z,16.80
2023-04-30T20:56:30.307Z,16.80
2023-04-30T20:58:58.578Z,16.70
2023-04-30T21:01:27.774Z,16.70
2023-04-30T21:03:56.290Z,16.70
2023-04-30T21:06:24.508Z,16.70
2023-04-30T21:08:52.716Z,16.60
2023-04-30T21:11:22.896Z,16.60
2023-04-30T21:13:51.587Z,16.60
2023-04-30T21:16:19.990Z,16.60
2023-04-30T21:18:48.807Z,16.60
2023-04-30T21:21:17.121Z,16.50
2023-04-30T21:23:48.113Z,16.40
2023-04-30T21:26:16.589Z,16.40
2023-04-30T21:28:46.194Z,16.40
2023-04-30T21:31:15.046Z,16.30
2023-04-30T21:33:43.257Z,16.30
2023-04-30T21:36:11.383Z,16.30
2023-04-30T21:38:39.868Z,16.20
2023-04-30T21:41:08.076Z,16.20
2023-04-30T21:43:36.955Z,16.10
2023-04-30T21:46:06.485Z,16.00
2023-04-30T21:48:35.081Z,16.00
2023-04-30T21:51:04.320Z,15.90
2023-04-30T21:53:32.515Z,15.90
2023-04-30T21:56:07.364Z,15.90
2023-04-30T21:58:35.840Z,15.80
2023-04-30T22:01:05.158Z,15.80
2023-04-30T22:03:35.617Z,15.70
2023-04-30T22:06:04.233Z,15.70
2023-04-30T22:08:32.425Z,15.70
2023-04-30T22:11:01.764Z,15.60
2023-04-30T22:13:30.535Z,15.60
2023-04-30T22:15:58.716Z,15.50
2023-04-30T22:18:27.296Z,15.50
2023-04-30T22:20:56.939Z,15.50
2023-04-30T22:23:25.144Z,15.50
2023-04-30T22:25:53.325Z,15.40
2023-04-30T22:28:23.263Z,15.40
2023-04-30T22:30:57.927Z,15.30
2023-04-30T22:33:26.220Z,15.30
2023-04-30T22:35:56.012Z,15.30
2023-04-30T22:38:24.453Z,15.20
2023-04-30T22:40:52.747Z,15.10
2023-04-30T22:43:20.917Z,15.00
2023-04-30T22:45:49.328Z,15.00
2023-04-30T22:48:17.624Z,15.00
2023-04-30T22:50:45.948Z,15.00
2023-04-30T22:53:15.640Z,15.00
2023-04-30T22:55:44.002Z,14.90
2023-04-30T22:58:12.833Z,14.90
2023-04-30T23:00:41.113Z,14.90
2023-04-30T23:03:09.444Z,14.90
2023-04-30T23:05:37.641Z,14.80
2023-04-30T23:08:06.193Z,14.80
2023-04-30T23:10:35.752Z,14.80
2023-04-30T23:13:04.029Z,14.80
2023-04-30T23:15:32.253Z,14.80
2023-04-30T23:18:00.504Z,14.80
2023-04-30T23:20:28.852Z,14.70
2023-04-30T23:22:57.000Z,14.70
2023-04-30T23:25:25.210Z,14.70
2023-04-30T23:27:54.704Z,14.70
2023-04-30T23:30:23.614Z,14.60
2023-04-30T23:32:51.804Z,14.60
2023-04-30T23:35:19.999Z,14.60
2023-04-30T23:37:48.171Z,14.60
2023-04-30T23:40:16.611Z,14.50
2023-04-30T23:42:44.778Z,14.50
2023-04-30T23:45:14.395Z,14.40
2023-04-30T23:47:42.618Z,14.40
2023-04-30T23:50:11.828Z,14.40
2023-04-30T23:52:39.995Z,14.40
2023-04-30T23:55:09.440Z,14.40
2023-04-30T23:57:37.933Z,14.40
